FMMI/TNR METAR and TAF weather

Enter ICAO airport designator
Station Type Date Time Source
FMMI METAR 2019/04/23 00:00 UTC NOAA

FMMI 230000Z 09003KT 9999 FEW017 16/15 Q1018 NOSIG


Station Type Date Time Source
FMMI Decoded METAR 2019/04/23 00:00 UTC NOAA

Antananarivo / Ivato, Madagascar (FMMI) 18-48S 047-29E 1276M
Apr 22, 2019 - 08:00 PM EDT / 2019.04.23 0000 UTC
Wind: from the E (090 degrees) at 3 MPH (3 KT):0
Visibility: greater than 7 mile(s):0
Sky conditions: mostly clear
Temperature: 60 F (16 C)
Dew Point: 59 F (15 C)
Relative Humidity: 93%
Pressure (altimeter): 30.06 in. Hg (1018 hPa)
ob: FMMI 230000Z 09003KT 9999 FEW017 16/15 Q1018 NOSIG
cycle: 0

Station Type Date Time Source
FMMI TAF 2019/04/23 00:00 UTC NOAA

TAF FMMI 222300Z 2300/2406 12005KT 9999 FEW010 BKN020 PROB30 2300/2304 3000 BR SCT004
BECMG 2304/2306 10010G20KT FEW020
BECMG 2308/2310 FEW020CB SCT023

Example: see airport list